Terminal Aerodrome Forecast
Issued by NWS Wilmington, OH

Current Version | Previous Version | Graphics & Text | Print | Product List | Glossary On
Versions: 1 2 3 4 5 6 7 8 9 10 11 12 13 14 15 16 17 18 19 20
000
FTUS41 KILN 241748
TAFDAY
TAF
KDAY 241748Z 2418/2518 09008KT P6SM VCSH OVC035
      TEMPO 2418/2419 BKN025
     FM242300 06007KT 4SM -SHRA VCTS BKN025 OVC050CB
     FM250300 02008KT P6SM VCSH OVC025
     FM250500 06008KT P6SM -SHRA OVC015
     FM250800 08007KT 5SM -SHRA BR OVC008=

USA.gov is the U.S. government's official web portal to all federal, state and local government web resources and services.